Time;durP1;ratioP1;P1;durP2;ratioP2;P2;SDS_P1;SDS_P2;PMS_P1;PMS_P2;Temp;Humidity;BMP_temperature;BMP_pressure;BME280_temperature;BME280_humidity;BME280_pressure;Samples;Min_cycle;Max_cycle;Signal;HPM_P1;HPM_P2
2021/12/13 00:01:59;;;;;;;15.32;9.23;;;10.80;99.90;;;;;;5142473;27;36426;-63
2021/12/13 00:04:32;;;;;;;14.15;9.07;;;10.80;99.90;;;;;;5143116;27;37623;-63
2021/12/13 00:07:03;;;;;;;15.23;9.52;;;10.80;99.90;;;;;;5143013;27;37611;-63
2021/12/13 00:09:35;;;;;;;20.08;10.55;;;10.80;99.90;;;;;;5144851;27;37476;-63
2021/12/13 00:12:06;;;;;;;14.45;9.55;;;10.80;99.90;;;;;;5142525;27;36446;-63
2021/12/13 00:14:36;;;;;;;15.63;9.27;;;10.80;99.90;;;;;;5144740;27;37590;-63
2021/12/13 00:17:07;;;;;;;18.83;10.35;;;10.80;99.90;;;;;;5144076;27;37893;-63
2021/12/13 00:19:39;;;;;;;15.82;9.95;;;10.80;99.90;;;;;;5144132;27;37520;-63
2021/12/13 00:22:11;;;;;;;16.77;10.25;;;10.80;99.90;;;;;;5144062;27;37170;-63
2021/12/13 00:24:41;;;;;;;16.77;9.25;;;10.80;99.90;;;;;;5143297;27;37184;-63
2021/12/13 00:27:14;;;;;;;23.73;10.70;;;10.80;99.90;;;;;;5143425;27;37896;-63
2021/12/13 00:29:52;;;;;;;20.02;9.88;;;10.80;99.90;;;;;;5141528;27;37938;-63
2021/12/13 00:32:27;;;;;;;24.00;10.85;;;10.80;99.90;;;;;;5143250;27;36783;-63
2021/12/13 00:35:00;;;;;;;18.75;10.88;;;10.80;99.90;;;;;;5141387;27;39480;-63
2021/12/13 00:37:32;;;;;;;18.25;10.80;;;10.80;99.90;;;;;;5141881;27;37077;-63
2021/12/13 00:40:02;;;;;;;29.08;12.48;;;10.80;99.90;;;;;;5142374;27;38030;-63
2021/12/13 00:42:35;;;;;;;25.20;11.80;;;10.80;99.90;;;;;;5143119;27;37452;-63
2021/12/13 00:45:07;;;;;;;28.92;12.07;;;10.80;99.90;;;;;;5142041;27;39098;-63
2021/12/13 00:47:37;;;;;;;22.58;12.55;;;10.80;99.90;;;;;;5144121;27;38566;-63
2021/12/13 00:50:11;;;;;;;23.40;12.35;;;10.80;99.90;;;;;;5142289;27;38207;-63
2021/12/13 00:52:42;;;;;;;23.05;12.25;;;10.80;99.90;;;;;;5143356;27;35534;-63
2021/12/13 00:55:15;;;;;;;27.15;12.35;;;10.70;99.90;;;;;;5142299;27;37176;-63
2021/12/13 00:57:46;;;;;;;27.80;13.40;;;10.80;99.90;;;;;;5142733;27;38818;-63
2021/12/13 01:00:23;;;;;;;28.48;14.32;;;10.80;99.90;;;;;;5141924;27;36216;-63
2021/12/13 01:02:56;;;;;;;21.10;11.90;;;10.80;99.90;;;;;;5143960;27;36826;-63
2021/12/13 01:05:43;;;;;;;24.20;13.13;;;10.80;99.90;;;;;;5142836;27;38818;-63
2021/12/13 01:08:16;;;;;;;26.80;13.18;;;10.80;99.90;;;;;;5143593;27;37779;-63
2021/12/13 01:11:11;;;;;;;21.58;11.95;;;10.80;99.90;;;;;;5141784;27;36309;-63
2021/12/13 01:14:00;;;;;;;26.67;13.23;;;10.80;99.90;;;;;;5142648;27;36602;-63
2021/12/13 01:16:47;;;;;;;24.95;11.55;;;10.80;99.90;;;;;;5139618;27;37806;-63
2021/12/13 01:19:30;;;;;;;21.27;11.60;;;10.80;99.90;;;;;;5142481;27;37823;-63
2021/12/13 01:25:37;;;;;;;22.70;11.20;;;10.80;99.90;;;;;;5057894;28;37278;-63
2021/12/13 01:28:12;;;;;;;20.10;10.63;;;10.80;99.90;;;;;;5059108;28;37581;-56
2021/12/13 01:30:46;;;;;;;21.50;12.10;;;10.80;99.90;;;;;;5112832;27;37917;-56
2021/12/13 01:33:17;;;;;;;18.90;9.52;;;10.80;99.90;;;;;;5141956;27;37533;-56
2021/12/13 01:35:47;;;;;;;19.92;10.20;;;10.80;99.90;;;;;;5141782;27;36958;-56
2021/12/13 01:38:20;;;;;;;16.70;9.77;;;10.80;99.90;;;;;;5143401;27;36429;-56
2021/12/13 01:40:51;;;;;;;21.30;10.85;;;10.80;99.90;;;;;;5141686;27;38020;-56
2021/12/13 01:43:22;;;;;;;19.35;9.57;;;10.80;99.90;;;;;;5142452;27;37208;-56
2021/12/13 01:45:52;;;;;;;20.52;10.27;;;10.80;99.90;;;;;;5140159;27;38087;-56
2021/12/13 01:48:24;;;;;;;18.42;9.80;;;10.80;99.90;;;;;;5140990;27;39268;-56
2021/12/13 01:51:04;;;;;;;22.10;11.27;;;10.80;99.90;;;;;;5140779;27;38467;-56
2021/12/13 01:53:38;;;;;;;17.63;9.88;;;10.80;99.90;;;;;;5140901;27;38245;-56
2021/12/13 01:56:23;;;;;;;21.73;10.98;;;10.80;99.90;;;;;;5140509;27;37430;-56
2021/12/13 01:58:52;;;;;;;23.02;11.32;;;10.80;99.90;;;;;;5141535;27;37729;-56
2021/12/13 02:01:24;;;;;;;25.10;11.63;;;10.80;99.90;;;;;;5141588;27;39209;-56
2021/12/13 02:03:57;;;;;;;23.20;11.20;;;10.80;99.90;;;;;;5140914;27;38404;-56
2021/12/13 02:06:31;;;;;;;21.02;10.45;;;10.80;99.90;;;;;;5142733;27;38346;-56
2021/12/13 02:09:04;;;;;;;24.60;12.85;;;10.80;99.90;;;;;;5141176;27;37654;-56
2021/12/13 02:11:33;;;;;;;22.50;11.82;;;10.80;99.90;;;;;;5141858;27;36648;-56
2021/12/13 02:14:10;;;;;;;25.75;12.23;;;10.80;99.90;;;;;;5142361;27;38059;-56
2021/12/13 02:17:01;;;;;;;25.33;12.57;;;10.80;99.90;;;;;;5141666;27;37312;-56
2021/12/13 02:19:38;;;;;;;22.55;11.73;;;10.80;99.90;;;;;;5141769;27;37524;-56
2021/12/13 02:22:22;;;;;;;25.35;12.48;;;10.80;99.90;;;;;;5140798;27;36363;-56
2021/12/13 02:24:51;;;;;;;22.42;13.30;;;10.80;99.90;;;;;;5137441;27;38283;-56
2021/12/13 02:27:24;;;;;;;27.10;14.27;;;10.90;99.90;;;;;;5141624;27;36576;-56
2021/12/13 02:29:54;;;;;;;32.00;15.53;;;10.90;99.90;;;;;;5140292;27;37449;-56
2021/12/13 02:32:25;;;;;;;31.08;15.25;;;10.80;99.90;;;;;;5141032;27;37522;-55
2021/12/13 02:34:53;;;;;;;34.70;16.52;;;10.80;99.90;;;;;;5140476;27;39177;-56
2021/12/13 02:37:24;;;;;;;35.03;14.68;;;10.80;99.90;;;;;;5140616;27;35406;-57
2021/12/13 02:39:56;;;;;;;31.88;14.13;;;10.80;99.90;;;;;;5139931;27;36335;-56
2021/12/13 02:42:24;;;;;;;32.97;15.40;;;10.80;99.90;;;;;;5142262;27;36555;-56
2021/12/13 02:44:57;;;;;;;29.27;14.38;;;10.80;99.90;;;;;;5140695;27;37082;-56
2021/12/13 02:47:28;;;;;;;36.13;15.63;;;10.80;99.90;;;;;;5141601;27;37261;-56
2021/12/13 02:49:57;;;;;;;36.22;16.08;;;10.80;99.90;;;;;;5139279;27;38828;-56
2021/12/13 02:52:27;;;;;;;39.65;14.68;;;10.80;99.90;;;;;;5141351;27;37809;-56
2021/12/13 02:54:58;;;;;;;42.42;14.70;;;10.80;99.90;;;;;;5139789;27;37536;-56
2021/12/13 02:57:30;;;;;;;34.28;14.63;;;10.70;99.90;;;;;;5141804;27;36291;-63
2021/12/13 03:00:01;;;;;;;33.92;13.48;;;10.70;99.90;;;;;;5139722;27;36374;-63
2021/12/13 03:02:32;;;;;;;37.80;12.07;;;10.70;99.90;;;;;;5142388;27;37807;-63
2021/12/13 03:05:00;;;;;;;32.97;13.07;;;10.70;99.90;;;;;;5140394;27;37520;-63
2021/12/13 03:07:33;;;;;;;27.58;11.90;;;10.70;99.90;;;;;;5140603;27;36939;-63
2021/12/13 03:10:05;;;;;;;34.30;12.10;;;10.70;99.90;;;;;;5140508;27;38243;-63
2021/12/13 03:12:32;;;;;;;25.35;11.13;;;10.70;99.90;;;;;;5140948;27;36502;-63
2021/12/13 03:15:03;;;;;;;30.10;12.68;;;10.70;99.90;;;;;;5139628;27;38564;-63
2021/12/13 03:17:33;;;;;;;27.25;11.07;;;10.70;99.90;;;;;;5145138;27;36685;-63
2021/12/13 03:20:14;;;;;;;29.63;12.20;;;10.70;99.90;;;;;;5144495;27;36317;-63
2021/12/13 03:23:09;;;;;;;32.20;13.95;;;10.70;99.90;;;;;;5144579;27;38594;-63
2021/12/13 03:25:53;;;;;;;32.03;12.60;;;10.70;99.90;;;;;;5143082;27;37634;-63
2021/12/13 03:28:35;;;;;;;28.10;11.70;;;10.70;99.90;;;;;;5144834;27;35721;-63
2021/12/13 03:31:06;;;;;;;35.17;12.32;;;10.60;99.90;;;;;;5142720;27;37554;-63
2021/12/13 03:33:41;;;;;;;36.35;12.13;;;10.70;99.90;;;;;;5144451;27;37742;-63
2021/12/13 03:36:12;;;;;;;34.47;11.57;;;10.70;99.90;;;;;;5143174;27;38221;-63
2021/12/13 03:38:45;;;;;;;27.67;11.38;;;10.60;99.90;;;;;;5144904;27;35486;-63
2021/12/13 03:41:17;;;;;;;28.20;11.65;;;10.60;99.90;;;;;;5143251;27;40155;-63
2021/12/13 03:43:48;;;;;;;25.23;10.32;;;10.60;99.90;;;;;;5144384;27;36444;-63
2021/12/13 03:46:18;;;;;;;24.33;11.23;;;10.60;99.90;;;;;;5143220;27;36744;-63
2021/12/13 03:48:49;;;;;;;27.77;9.90;;;10.60;99.90;;;;;;5143997;27;36921;-63
2021/12/13 03:51:21;;;;;;;24.50;11.00;;;10.60;99.90;;;;;;5143765;27;36174;-63
2021/12/13 03:53:53;;;;;;;21.90;9.52;;;10.60;99.90;;;;;;5142395;27;37871;-63
2021/12/13 03:56:23;;;;;;;20.25;8.80;;;10.60;99.90;;;;;;5141523;27;38789;-62
2021/12/13 03:58:54;;;;;;;24.90;9.43;;;10.60;99.90;;;;;;5144155;27;35955;-63
2021/12/13 04:01:24;;;;;;;22.58;7.90;;;10.60;99.90;;;;;;5143538;27;38339;-63
2021/12/13 04:03:54;;;;;;;18.55;8.65;;;10.60;99.90;;;;;;5144295;27;36445;-63
2021/12/13 04:06:22;;;;;;;22.80;8.18;;;10.50;99.90;;;;;;5143569;27;38168;-63
2021/12/13 04:08:54;;;;;;;23.27;8.20;;;10.50;99.90;;;;;;5142596;27;36324;-63
2021/12/13 04:11:23;;;;;;;16.60;7.57;;;10.50;99.90;;;;;;5143153;27;37538;-63
2021/12/13 04:13:54;;;;;;;19.13;7.10;;;10.50;99.90;;;;;;5143761;27;37416;-63
2021/12/13 04:16:33;;;;;;;20.60;7.30;;;10.50;99.90;;;;;;5143553;27;40370;-63
2021/12/13 04:19:08;;;;;;;23.95;6.85;;;10.40;99.90;;;;;;5143107;27;35314;-63
2021/12/13 04:21:49;;;;;;;18.15;6.13;;;10.40;99.90;;;;;;5143603;27;39481;-63
2021/12/13 04:24:21;;;;;;;16.95;5.75;;;10.40;99.90;;;;;;5141947;27;38259;-63
2021/12/13 04:26:52;;;;;;;15.65;4.78;;;10.40;99.90;;;;;;5142464;27;37539;-63
2021/12/13 04:29:22;;;;;;;15.95;4.95;;;10.40;99.90;;;;;;5143135;27;37763;-63
2021/12/13 04:31:51;;;;;;;14.05;5.00;;;10.40;99.90;;;;;;5144089;27;36284;-63
2021/12/13 04:34:22;;;;;;;13.73;5.68;;;10.40;99.90;;;;;;5143893;27;36363;-63
2021/12/13 04:36:52;;;;;;;11.70;4.65;;;10.30;99.90;;;;;;5141574;27;36161;-63
2021/12/13 04:39:27;;;;;;;14.80;4.68;;;10.30;99.90;;;;;;5143008;27;36263;-63
2021/12/13 04:41:59;;;;;;;14.02;5.30;;;10.30;99.90;;;;;;5140753;27;39311;-62
2021/12/13 04:44:31;;;;;;;9.40;4.88;;;10.30;99.90;;;;;;5143187;27;39520;-63
2021/12/13 04:47:06;;;;;;;18.40;6.40;;;10.30;99.90;;;;;;5143334;27;37592;-56
2021/12/13 04:49:37;;;;;;;12.13;5.35;;;10.30;99.90;;;;;;5143690;27;37130;-56
2021/12/13 04:52:09;;;;;;;14.32;5.65;;;10.30;99.90;;;;;;5143572;27;37989;-56
2021/12/13 04:54:41;;;;;;;11.52;4.60;;;10.20;99.90;;;;;;5141683;27;37988;-56
2021/12/13 04:57:09;;;;;;;11.35;4.70;;;10.20;99.90;;;;;;5141298;27;37285;-56
2021/12/13 04:59:37;;;;;;;13.18;4.32;;;10.20;99.90;;;;;;5143486;27;36920;-56
2021/12/13 05:02:08;;;;;;;8.30;4.03;;;10.30;99.90;;;;;;5142359;27;37230;-56
2021/12/13 05:04:36;;;;;;;12.68;4.07;;;10.30;99.90;;;;;;5142828;27;38238;-56
2021/12/13 05:07:06;;;;;;;12.52;3.72;;;10.20;99.90;;;;;;5140834;27;37876;-56
2021/12/13 05:09:37;;;;;;;7.35;3.55;;;10.20;99.90;;;;;;5143636;27;35335;-56
2021/12/13 05:12:13;;;;;;;9.18;3.42;;;10.30;99.90;;;;;;5141900;27;37023;-56
2021/12/13 05:14:46;;;;;;;7.13;3.20;;;10.20;99.90;;;;;;5142696;27;38831;-56
2021/12/13 05:17:16;;;;;;;8.03;2.90;;;10.20;99.90;;;;;;5142742;27;39719;-57
2021/12/13 05:19:46;;;;;;;9.25;2.75;;;10.20;99.90;;;;;;5142541;27;36534;-56
2021/12/13 05:22:17;;;;;;;9.23;3.38;;;10.20;99.90;;;;;;5140979;27;36389;-56
2021/12/13 05:24:49;;;;;;;9.60;3.53;;;10.20;99.90;;;;;;5141441;27;39238;-56
2021/12/13 05:27:26;;;;;;;11.43;3.97;;;10.20;99.90;;;;;;5143230;27;37075;-56
2021/12/13 05:30:03;;;;;;;8.98;3.42;;;10.20;99.90;;;;;;5142118;27;37115;-55
2021/12/13 05:32:36;;;;;;;8.48;3.20;;;10.20;99.90;;;;;;5142870;27;37632;-56
2021/12/13 05:35:13;;;;;;;8.20;4.22;;;10.20;99.90;;;;;;5142445;27;36570;-56
2021/12/13 05:37:41;;;;;;;10.13;3.60;;;10.20;99.90;;;;;;5141509;27;37201;-56
2021/12/13 05:40:14;;;;;;;8.15;3.85;;;10.20;99.90;;;;;;5142747;27;36607;-56
2021/12/13 05:42:44;;;;;;;13.87;3.97;;;10.10;99.90;;;;;;5140623;27;38751;-56
2021/12/13 05:45:15;;;;;;;9.80;4.03;;;10.10;99.90;;;;;;5140531;27;39772;-56
2021/12/13 05:47:56;;;;;;;8.95;5.07;;;10.10;99.90;;;;;;5140798;27;37764;-56
2021/12/13 05:50:30;;;;;;;9.80;3.80;;;10.10;99.90;;;;;;5141840;27;36457;-56
2021/12/13 05:53:05;;;;;;;8.48;3.42;;;10.10;99.90;;;;;;5142115;27;37600;-56
2021/12/13 05:55:54;;;;;;;9.38;3.90;;;10.10;99.90;;;;;;5138676;27;37517;-56
2021/12/13 05:58:31;;;;;;;11.13;3.92;;;10.10;99.90;;;;;;5139679;27;37871;-55
2021/12/13 06:01:01;;;;;;;13.10;4.60;;;10.00;99.90;;;;;;5140340;27;37271;-56
2021/12/13 06:03:33;;;;;;;9.90;4.40;;;10.10;99.90;;;;;;5141363;27;38125;-56
2021/12/13 06:06:10;;;;;;;10.30;4.45;;;10.10;99.90;;;;;;5142120;27;37976;-56
2021/12/13 06:08:44;;;;;;;14.27;5.22;;;10.00;99.90;;;;;;5141142;27;38125;-56
2021/12/13 06:11:17;;;;;;;12.10;5.35;;;10.00;99.90;;;;;;5140833;27;37265;-56
2021/12/13 06:13:57;;;;;;;10.50;4.90;;;10.00;99.90;;;;;;5140819;27;37535;-63
2021/12/13 06:16:47;;;;;;;13.48;5.40;;;10.00;99.90;;;;;;5141015;27;37855;-63
2021/12/13 06:19:22;;;;;;;15.65;5.63;;;10.10;99.90;;;;;;5142629;27;37053;-63
2021/12/13 06:22:01;;;;;;;14.40;6.20;;;10.00;99.90;;;;;;5141534;27;36673;-63
2021/12/13 06:24:32;;;;;;;13.00;6.30;;;10.00;99.90;;;;;;5139396;27;38318;-63
2021/12/13 06:27:09;;;;;;;17.40;6.13;;;10.00;99.90;;;;;;5140648;27;38024;-63
2021/12/13 06:30:06;;;;;;;15.13;6.55;;;10.00;99.90;;;;;;5140210;27;37518;-63
2021/12/13 06:32:42;;;;;;;14.73;6.47;;;10.00;99.90;;;;;;5142445;27;37550;-63
2021/12/13 06:35:30;;;;;;;13.27;6.43;;;10.00;99.90;;;;;;5141340;27;37640;-63
2021/12/13 06:37:59;;;;;;;14.27;7.00;;;10.00;99.90;;;;;;5141464;27;37868;-63
2021/12/13 06:40:29;;;;;;;13.00;6.65;;;10.00;99.90;;;;;;5131581;27;37525;-63
2021/12/13 06:43:00;;;;;;;15.50;7.03;;;10.00;99.90;;;;;;5134354;27;35446;-63
2021/12/13 06:45:31;;;;;;;11.90;6.18;;;10.00;99.90;;;;;;5136578;27;36454;-63
2021/12/13 06:48:01;;;;;;;13.40;6.57;;;10.00;99.90;;;;;;5134461;27;37920;-63
2021/12/13 06:50:33;;;;;;;12.82;6.35;;;10.00;99.90;;;;;;5135817;27;38759;-63
2021/12/13 06:53:12;;;;;;;14.52;7.00;;;10.00;99.90;;;;;;5138890;27;37875;-63
2021/12/13 06:55:40;;;;;;;25.75;6.90;;;10.00;99.90;;;;;;5139117;27;36313;-63
2021/12/13 06:58:22;;;;;;;11.23;6.95;;;10.00;99.90;;;;;;5140701;27;39934;-63
2021/12/13 07:00:52;;;;;;;12.07;6.07;;;10.00;99.90;;;;;;5137494;27;38072;-63
2021/12/13 07:03:26;;;;;;;14.35;6.65;;;10.00;99.90;;;;;;5140232;27;36060;-62
2021/12/13 07:05:56;;;;;;;15.20;7.32;;;9.90;99.90;;;;;;5139492;27;37336;-63
2021/12/13 07:08:26;;;;;;;14.48;7.47;;;9.90;99.90;;;;;;5139081;27;37321;-63
2021/12/13 07:11:00;;;;;;;12.63;7.28;;;9.90;99.90;;;;;;5137302;27;38824;-63
2021/12/13 07:13:33;;;;;;;13.70;6.85;;;9.90;99.90;;;;;;5139357;27;36842;-63
2021/12/13 07:16:04;;;;;;;16.02;7.88;;;9.90;99.90;;;;;;5140476;27;39866;-63
2021/12/13 07:18:42;;;;;;;12.68;6.72;;;9.90;99.90;;;;;;5140374;27;37988;-63
2021/12/13 07:21:13;;;;;;;15.13;7.10;;;9.90;99.90;;;;;;5137521;27;37556;-63
2021/12/13 07:24:01;;;;;;;14.63;7.35;;;9.90;99.90;;;;;;5140622;27;36313;-63
2021/12/13 07:26:41;;;;;;;16.20;7.07;;;9.90;99.90;;;;;;5136722;27;37527;-63
2021/12/13 07:29:14;;;;;;;16.25;6.70;;;9.80;99.90;;;;;;5139352;27;39868;-63
2021/12/13 07:31:44;;;;;;;13.75;7.57;;;9.90;99.90;;;;;;5139941;27;38173;-63
2021/12/13 07:34:14;;;;;;;14.25;6.90;;;9.90;99.90;;;;;;5140167;27;36520;-63
2021/12/13 07:36:42;;;;;;;14.00;8.60;;;9.90;99.90;;;;;;5139587;27;36538;-63
2021/12/13 07:39:15;;;;;;;15.93;8.18;;;9.90;99.90;;;;;;5137667;27;37670;-63
2021/12/13 07:41:47;;;;;;;12.40;7.18;;;9.80;99.90;;;;;;5139587;27;37966;-63
2021/12/13 07:44:36;;;;;;;14.38;8.30;;;9.80;99.90;;;;;;5138735;27;35285;-63
2021/12/13 07:47:06;;;;;;;18.05;8.40;;;9.80;99.90;;;;;;5139098;27;37405;-63
2021/12/13 07:49:37;;;;;;;15.05;8.68;;;9.80;99.90;;;;;;5133829;27;37611;-63
2021/12/13 07:52:09;;;;;;;16.50;8.85;;;9.80;99.90;;;;;;5137792;27;36171;-63
2021/12/13 07:54:43;;;;;;;14.35;8.82;;;9.80;99.90;;;;;;5136410;27;36942;-56
2021/12/13 07:57:21;;;;;;;15.50;9.82;;;9.80;99.90;;;;;;5139013;27;37029;-56
2021/12/13 07:59:51;;;;;;;17.17;9.88;;;9.80;99.90;;;;;;5136514;27;36420;-56
2021/12/13 08:02:25;;;;;;;16.80;9.80;;;9.80;99.90;;;;;;5136357;27;37090;-56
2021/12/13 08:04:55;;;;;;;18.48;9.52;;;9.90;99.90;;;;;;5135776;27;35364;-63
2021/12/13 08:07:26;;;;;;;15.93;10.38;;;9.90;99.90;;;;;;5137782;27;38040;-63
2021/12/13 08:09:58;;;;;;;19.35;9.95;;;9.90;99.90;;;;;;5136385;27;38373;-63
2021/12/13 08:12:28;;;;;;;18.02;10.55;;;9.90;99.90;;;;;;5137839;27;37904;-63
2021/12/13 08:15:10;;;;;;;17.23;10.95;;;9.90;99.90;;;;;;5137460;27;35321;-63
2021/12/13 08:17:43;;;;;;;18.88;11.10;;;9.90;99.90;;;;;;5139110;27;41064;-63
2021/12/13 08:20:14;;;;;;;20.02;10.88;;;9.90;99.90;;;;;;5135725;27;36428;-56
2021/12/13 08:22:44;;;;;;;18.65;11.73;;;9.90;99.90;;;;;;5138834;27;37470;-56
2021/12/13 08:25:19;;;;;;;14.43;10.93;;;9.90;99.90;;;;;;5136033;27;36836;-56
2021/12/13 08:27:53;;;;;;;17.67;11.82;;;9.90;99.90;;;;;;5137683;27;38289;-56
2021/12/13 08:30:27;;;;;;;20.58;11.95;;;9.90;99.90;;;;;;5134387;27;38115;-56
2021/12/13 08:32:59;;;;;;;19.15;11.88;;;10.00;99.90;;;;;;5137003;27;36179;-63
2021/12/13 08:35:27;;;;;;;18.10;12.50;;;10.00;99.90;;;;;;5136950;27;36509;-63
2021/12/13 08:37:56;;;;;;;22.20;13.40;;;9.90;99.90;;;;;;5138497;27;39009;-63
2021/12/13 08:40:28;;;;;;;19.17;12.18;;;10.00;99.90;;;;;;5135466;27;37735;-63
2021/12/13 08:42:59;;;;;;;19.83;13.38;;;10.00;99.90;;;;;;5136964;27;38225;-63
2021/12/13 08:45:32;;;;;;;21.52;12.65;;;10.00;99.90;;;;;;5134552;27;36634;-63
2021/12/13 08:48:02;;;;;;;18.88;12.88;;;10.00;99.90;;;;;;5137634;27;37619;-56
2021/12/13 08:50:32;;;;;;;20.00;13.35;;;10.00;99.90;;;;;;5137231;27;38353;-56
2021/12/13 08:53:04;;;;;;;18.67;13.00;;;10.00;99.90;;;;;;5137032;27;37071;-56
2021/12/13 08:55:37;;;;;;;22.08;13.05;;;10.10;99.90;;;;;;5135051;27;35626;-56
2021/12/13 08:58:15;;;;;;;24.15;12.70;;;10.10;99.90;;;;;;5135621;27;37601;-56
2021/12/13 09:00:59;;;;;;;20.10;13.20;;;10.10;99.90;;;;;;5133946;27;38791;-56
2021/12/13 09:03:37;;;;;;;21.90;14.15;;;10.10;99.90;;;;;;5135992;27;36852;-56
2021/12/13 09:06:31;;;;;;;17.13;12.45;;;10.10;99.90;;;;;;5134351;27;36992;-56
2021/12/13 09:09:04;;;;;;;18.80;12.35;;;10.20;99.90;;;;;;5116343;27;36254;-56
2021/12/13 09:11:35;;;;;;;21.33;13.60;;;10.20;99.90;;;;;;5134033;27;38213;-56
2021/12/13 09:14:14;;;;;;;21.67;13.13;;;10.20;99.90;;;;;;5131010;27;38148;-56
2021/12/13 09:16:53;;;;;;;20.20;13.75;;;10.20;99.90;;;;;;5135723;27;35492;-63
2021/12/13 09:19:24;;;;;;;20.58;13.40;;;10.20;99.90;;;;;;5135935;27;37284;-63
2021/12/13 09:21:59;;;;;;;22.15;13.80;;;10.20;99.90;;;;;;5134760;27;38716;-63
2021/12/13 09:24:37;;;;;;;18.65;13.13;;;10.20;99.80;;;;;;5134693;27;37609;-63
2021/12/13 09:27:22;;;;;;;21.45;13.38;;;10.30;99.80;;;;;;5134829;27;36861;-63
2021/12/13 09:30:08;;;;;;;18.98;13.35;;;10.20;99.70;;;;;;5134110;27;36523;-63
2021/12/13 09:32:41;;;;;;;19.00;13.50;;;10.20;99.70;;;;;;5136716;27;39960;-63
2021/12/13 09:35:24;;;;;;;;;;;10.30;99.80;;;;;;5135653;27;38284;-63
2021/12/13 09:37:53;;;;;;;18.52;11.82;;;10.30;99.40;;;;;;5136931;27;36932;-63
2021/12/13 09:40:29;;;;;;;17.27;12.65;;;10.30;99.70;;;;;;5134081;27;37233;-63
2021/12/13 09:42:58;;;;;;;18.75;12.23;;;10.30;99.70;;;;;;5136325;27;40757;-63
2021/12/13 09:45:28;;;;;;;17.60;12.30;;;10.30;99.60;;;;;;5136614;27;38324;-63
2021/12/13 09:47:57;;;;;;;16.45;11.40;;;10.30;99.60;;;;;;5137266;27;36479;-63
2021/12/13 09:50:30;;;;;;;18.10;11.40;;;10.30;99.50;;;;;;5136817;27;37809;-63
2021/12/13 09:53:04;;;;;;;19.58;11.75;;;10.30;99.40;;;;;;5136953;27;38602;-63
2021/12/13 09:55:34;;;;;;;18.30;11.77;;;10.30;99.40;;;;;;5134464;27;37652;-63
2021/12/13 09:58:05;;;;;;;16.98;11.90;;;10.30;99.40;;;;;;5136798;27;36571;-63
2021/12/13 10:00:40;;;;;;;23.02;13.52;;;10.40;99.40;;;;;;5136911;27;38527;-63
2021/12/13 10:03:13;;;;;;;16.80;10.65;;;10.40;99.40;;;;;;5134985;27;38542;-63
2021/12/13 10:05:47;;;;;;;17.17;11.55;;;10.40;99.20;;;;;;5137006;27;36347;-63
2021/12/13 10:08:19;;;;;;;21.25;11.95;;;10.40;99.20;;;;;;5136498;27;37248;-63
2021/12/13 10:10:51;;;;;;;16.23;11.45;;;10.40;99.10;;;;;;5136334;27;36985;-63
2021/12/13 10:13:22;;;;;;;18.75;10.93;;;10.40;99.00;;;;;;5136288;27;38192;-63
2021/12/13 10:15:53;;;;;;;16.52;10.48;;;10.40;99.10;;;;;;5136165;27;37242;-63
2021/12/13 10:18:26;;;;;;;17.77;10.07;;;10.40;98.90;;;;;;5135344;27;37534;-63
2021/12/13 10:20:57;;;;;;;14.93;10.90;;;10.40;98.90;;;;;;5135631;27;36513;-63
2021/12/13 10:23:28;;;;;;;16.15;11.10;;;10.40;98.80;;;;;;5133660;27;37903;-63
2021/12/13 10:25:59;;;;;;;14.98;10.82;;;10.40;98.80;;;;;;5134099;27;37623;-63
2021/12/13 10:28:31;;;;;;;14.43;10.95;;;10.40;98.90;;;;;;5135252;27;36686;-63
2021/12/13 10:31:02;;;;;;;16.17;10.95;;;10.40;98.90;;;;;;5134651;27;37963;-63
2021/12/13 10:33:31;;;;;;;20.25;11.32;;;10.40;98.90;;;;;;5134874;27;37820;-63
2021/12/13 10:36:02;;;;;;;16.80;11.48;;;10.40;98.80;;;;;;5135654;27;37051;-63
2021/12/13 10:38:32;;;;;;;20.83;11.50;;;10.50;98.80;;;;;;5134437;27;37392;-63
2021/12/13 10:41:05;;;;;;;21.27;10.75;;;10.50;98.80;;;;;;5135336;27;37462;-63
2021/12/13 10:43:36;;;;;;;15.77;10.67;;;10.50;98.70;;;;;;5135424;27;38178;-63
2021/12/13 10:46:10;;;;;;;14.10;10.35;;;10.60;98.60;;;;;;5136440;27;37619;-64
2021/12/13 10:48:44;;;;;;;;;;;10.60;98.60;;;;;;5135786;27;35769;-63
2021/12/13 10:51:12;;;;;;;;;;;10.60;98.10;;;;;;5137690;27;37902;-63
2021/12/13 10:53:41;;;;;;;14.80;10.85;;;10.60;97.90;;;;;;5136836;27;36652;-63
2021/12/13 10:56:13;;;;;;;18.25;11.70;;;10.60;98.30;;;;;;5135458;27;36123;-63
2021/12/13 10:58:44;;;;;;;17.05;11.25;;;10.60;98.30;;;;;;5135416;27;37286;-63
2021/12/13 11:01:15;;;;;;;17.05;10.75;;;10.60;98.30;;;;;;5135344;27;38359;-63
2021/12/13 11:03:44;;;;;;;13.98;10.32;;;10.60;98.40;;;;;;5136528;27;37609;-63
2021/12/13 11:06:16;;;;;;;15.43;10.55;;;10.60;98.30;;;;;;5136766;27;38067;-63
2021/12/13 11:08:43;;;;;;;17.05;10.48;;;10.60;98.30;;;;;;5136078;27;36676;-55
2021/12/13 11:11:19;;;;;;;19.02;11.18;;;10.60;98.30;;;;;;5136291;27;39138;-55
2021/12/13 11:13:50;;;;;;;17.92;11.38;;;10.60;98.30;;;;;;5135240;27;38122;-56
2021/12/13 11:16:21;;;;;;;14.60;10.55;;;10.60;98.30;;;;;;5136456;27;36099;-56
2021/12/13 11:18:51;;;;;;;17.25;10.93;;;10.60;98.10;;;;;;5133646;27;36865;-56
2021/12/13 11:21:21;;;;;;;17.40;10.65;;;10.60;98.20;;;;;;5136225;27;38553;-56
2021/12/13 11:23:49;;;;;;;20.48;11.18;;;10.60;98.20;;;;;;5135497;27;37431;-55
2021/12/13 11:26:20;;;;;;;18.58;11.13;;;10.70;98.00;;;;;;5135653;27;37632;-56
2021/12/13 11:28:47;;;;;;;20.77;10.73;;;10.70;97.90;;;;;;5135619;27;37486;-55
2021/12/13 11:31:23;;;;;;;16.13;10.93;;;10.70;97.90;;;;;;5135116;27;38250;-55
2021/12/13 11:37:16;;;;;;;15.55;10.43;;;10.70;97.90;;;;;;5132648;27;20410;-54
2021/12/13 11:39:59;;;;;;;17.55;10.70;;;10.80;97.80;;;;;;5108864;27;35930;-54
2021/12/13 11:43:03;;;;;;;16.42;10.20;;;10.80;97.80;;;;;;5127819;27;39020;-54
2021/12/13 11:45:58;;;;;;;17.52;10.75;;;10.80;97.70;;;;;;5126790;27;37543;-54
2021/12/13 11:48:53;;;;;;;15.38;11.05;;;10.80;97.60;;;;;;5128067;27;38225;-54
2021/12/13 11:51:57;;;;;;;21.05;11.82;;;10.90;97.60;;;;;;5127772;27;36019;-54
2021/12/13 11:54:59;;;;;;;17.27;10.30;;;10.90;97.70;;;;;;5126033;27;36864;-54
2021/12/13 11:58:01;;;;;;;19.38;10.70;;;11.00;97.60;;;;;;5127621;27;37217;-54
2021/12/13 12:00:48;;;;;;;16.55;10.45;;;11.00;97.50;;;;;;5125800;27;35848;-54
2021/12/13 12:03:59;;;;;;;17.58;10.13;;;11.10;97.60;;;;;;5127932;27;37826;-54
2021/12/13 12:07:18;;;;;;;15.05;10.18;;;11.10;97.50;;;;;;5125406;27;35426;-54
2021/12/13 12:10:18;;;;;;;16.92;10.40;;;11.10;97.10;;;;;;5055696;27;40676;-54
2021/12/13 12:12:59;;;;;;;16.52;10.75;;;11.10;97.00;;;;;;5125405;27;35946;-54
2021/12/13 12:15:28;;;;;;;15.60;9.95;;;11.10;97.30;;;;;;5124448;27;37756;-54
2021/12/13 12:17:57;;;;;;;18.40;10.45;;;11.30;97.50;;;;;;5126907;27;39306;-54
2021/12/13 12:20:28;;;;;;;15.57;10.60;;;11.10;97.60;;;;;;5125449;27;38895;-56
2021/12/13 12:22:57;;;;;;;18.25;10.73;;;11.10;97.80;;;;;;5127239;27;37797;-56
2021/12/13 12:25:30;;;;;;;19.58;11.32;;;11.10;98.00;;;;;;5128022;27;39401;-56
2021/12/13 12:27:59;;;;;;;19.10;10.40;;;11.10;98.10;;;;;;5128195;27;36763;-56
2021/12/13 12:30:31;;;;;;;19.27;11.82;;;11.00;98.30;;;;;;5126369;27;37664;-57
2021/12/13 12:33:06;;;;;;;18.55;11.00;;;11.00;98.40;;;;;;5128976;27;37032;-56
2021/12/13 12:35:38;;;;;;;19.35;11.00;;;11.00;98.50;;;;;;5126764;27;37318;-56
2021/12/13 12:38:26;;;;;;;18.02;10.90;;;11.00;98.60;;;;;;5127045;27;37906;-57
2021/12/13 12:41:48;;;;;;;14.88;10.77;;;11.00;98.80;;;;;;5127462;27;37327;-57
2021/12/13 12:44:18;;;;;;;21.52;11.05;;;11.00;98.90;;;;;;5088412;27;35939;-57
2021/12/13 12:46:46;;;;;;;17.83;10.25;;;10.90;98.90;;;;;;5121492;27;37198;-56
2021/12/13 12:49:16;;;;;;;16.42;10.40;;;10.90;99.00;;;;;;5112976;27;37856;-57
2021/12/13 12:51:44;;;;;;;17.77;10.05;;;11.00;99.10;;;;;;5112678;27;37832;-56
2021/12/13 12:54:14;;;;;;;16.27;10.20;;;11.00;99.10;;;;;;5111389;27;36977;-56
2021/12/13 12:56:46;;;;;;;18.40;10.35;;;11.00;99.10;;;;;;5113083;27;37157;-57
2021/12/13 12:59:18;;;;;;;17.60;10.50;;;10.90;99.10;;;;;;5110692;27;36821;-57
2021/12/13 13:01:49;;;;;;;18.83;10.95;;;10.90;99.20;;;;;;5111332;27;37603;-57
2021/12/13 13:04:21;;;;;;;21.27;12.80;;;10.90;99.20;;;;;;5112893;27;37148;-57
2021/12/13 13:06:52;;;;;;;16.13;9.90;;;10.90;99.20;;;;;;5114245;27;38140;-57
2021/12/13 13:09:20;;;;;;;21.27;10.60;;;10.80;99.10;;;;;;5113101;27;36533;-57
2021/12/13 13:11:52;;;;;;;19.85;10.68;;;10.80;99.10;;;;;;5113181;27;36539;-57
2021/12/13 13:14:27;;;;;;;17.60;11.20;;;10.90;99.20;;;;;;5113364;27;37353;-57
2021/12/13 13:16:59;;;;;;;20.38;11.18;;;10.80;99.20;;;;;;5114409;27;37211;-57